Time;durP1;ratioP1;P1;durP2;ratioP2;P2;SDS_P1;SDS_P2;PMS_P1;PMS_P2;Temp;Humidity;BMP_temperature;BMP_pressure;BME280_temperature;BME280_humidity;BME280_pressure;Samples;Min_cycle;Max_cycle;Signal;HPM_P1;HPM_P2
2021/10/23 00:02:13;;;;;;;;;;;;;;;11.16;65.73;98717.75;5058225;28;19920;-75
2021/10/23 00:04:39;;;;;;;;;;;;;;;11.06;66.01;98714.28;5075028;28;20015;-75
2021/10/23 00:07:06;;;;;;;;;;;;;;;11.03;66.42;98711.88;5061779;28;20026;-75
2021/10/23 00:09:31;;;;;;;;;;;;;;;10.99;66.25;98713.97;5061591;28;19920;-75
2021/10/23 00:11:57;;;;;;;;;;;;;;;11.04;66.04;98716.22;5061288;28;20290;-76
2021/10/23 00:14:23;;;;;;;;;;;;;;;10.90;66.54;98726.34;5078376;28;20243;-75
2021/10/23 00:16:48;;;;;;;;;;;;;;;10.98;66.35;98724.81;5061694;28;19920;-74
2021/10/23 00:19:14;;;;;;;;;;;;;;;10.94;66.55;98722.44;5096033;28;20375;-75
2021/10/23 00:21:40;;;;;;;;;;;;;;;10.88;66.68;98728.31;5061217;28;20382;-76
2021/10/23 00:24:06;;;;;;;;;;;;;;;10.79;66.94;98737.16;5061157;28;20018;-75
2021/10/23 00:26:31;;;;;;;;;;;;;;;10.80;66.99;98733.53;5077766;28;20042;-75
2021/10/23 00:28:57;;;;;;;;;;;;;;;10.81;66.68;98735.22;5061378;28;19931;-75
2021/10/23 00:31:23;;;;;;;;;;;;;;;10.69;67.34;98741.69;5061129;28;19928;-75
2021/10/23 00:33:49;;;;;;;;;;;;;;;10.76;67.04;98744.66;5077534;28;20424;-76
2021/10/23 00:36:15;;;;;;;;;;;;;;;10.68;67.26;98739.97;5094522;28;19996;-74
2021/10/23 00:38:41;;;;;;;;;;;;;;;10.65;67.37;98735.75;5094879;28;19924;-75
2021/10/23 00:41:06;;;;;;;;;;;;;;;10.68;67.52;98739.97;5077407;28;20026;-75
2021/10/23 00:43:35;;;;;;;;;;;;;;;10.66;67.29;98749.97;5061256;28;19920;-74
2021/10/23 00:46:01;;;;;;;;;;;;;;;10.64;67.50;98755.47;5060678;28;19931;-74
2021/10/23 00:48:27;;;;;;;;;;;;;;;10.63;67.76;98752.91;5077431;28;20252;-75
2021/10/23 00:50:53;;;;;;;;;;;;;;;10.59;67.56;98759.50;5077844;28;19919;-76
2021/10/23 00:53:20;;;;;;;;;;;;;;;10.58;67.66;98765.84;5060600;28;20284;-76
2021/10/23 00:55:45;;;;;;;;;;;;;;;10.53;67.76;98771.63;5060633;28;19919;-74
2021/10/23 00:58:12;;;;;;;;;;;;;;;10.52;67.91;98774.41;5093805;28;19927;-77
2021/10/23 01:00:37;;;;;;;;;;;;;;;10.59;67.70;98772.88;5060913;28;19927;-76
2021/10/23 01:03:03;;;;;;;;;;;;;;;10.48;67.76;98767.63;5077201;28;20010;-76
2021/10/23 01:05:29;;;;;;;;;;;;;;;10.31;67.98;98774.50;5060679;28;19919;-75
2021/10/23 01:07:55;;;;;;;;;;;;;;;10.18;68.63;98775.50;5077137;28;20026;-75
2021/10/23 01:10:21;;;;;;;;;;;;;;;10.08;68.68;98768.44;5060350;28;19923;-77
2021/10/23 01:12:47;;;;;;;;;;;;;;;9.97;68.96;98777.41;5077730;28;19927;-75
2021/10/23 01:15:16;;;;;;;;;;;;;;;9.76;70.12;98757.88;5077052;28;19947;-76
2021/10/23 01:17:42;;;;;;;;;;;;;;;9.66;70.43;98765.81;5093732;28;19977;-76
2021/10/23 01:20:08;;;;;;;;;;;;;;;9.51;71.23;98769.78;5060334;28;19920;-76
2021/10/23 01:22:34;;;;;;;;;;;;;;;9.44;71.34;98775.69;5076934;28;20378;-76
2021/10/23 01:25:00;;;;;;;;;;;;;;;9.41;71.08;98778.59;5076651;28;19920;-77
2021/10/23 01:27:26;;;;;;;;;;;;;;;9.34;71.64;98777.41;5076995;28;19924;-78
2021/10/23 01:29:51;;;;;;;;;;;;;;;9.27;71.87;98788.72;5077082;28;19965;-76
2021/10/23 01:32:17;;;;;;;;;;;;;;;9.25;71.89;98786.16;5077208;28;20279;-76
2021/10/23 01:34:43;;;;;;;;;;;;;;;9.22;71.98;98799.78;5060156;28;19920;-76
2021/10/23 01:37:09;;;;;;;;;;;;;;;9.30;71.85;98805.31;5059797;28;19920;-77
2021/10/23 01:39:35;;;;;;;;;;;;;;;9.38;71.75;98792.19;5076351;28;19931;-76
2021/10/23 01:42:01;;;;;;;;;;;;;;;9.44;71.54;98798.81;5059784;28;19934;-77
2021/10/23 01:44:28;;;;;;;;;;;;;;;9.34;71.76;98789.91;5059750;28;20111;-76
2021/10/23 01:46:54;;;;;;;;;;;;;;;9.31;71.82;98790.16;5093215;28;19935;-75
2021/10/23 01:49:19;;;;;;;;;;;;;;;9.25;72.00;98791.50;5075930;28;20337;-75
2021/10/23 01:51:45;;;;;;;;;;;;;;;9.20;72.32;98805.22;5059537;28;19920;-76
2021/10/23 01:54:11;;;;;;;;;;;;;;;9.22;71.92;98807.78;5076194;28;19919;-76
2021/10/23 01:56:38;;;;;;;;;;;;;;;9.21;72.02;98811.41;5042962;28;19920;-75
2021/10/23 01:59:03;;;;;;;;;;;;;;;9.25;72.07;98812.84;5059366;28;19920;-77
2021/10/23 02:01:29;;;;;;;;;;;;;;;9.25;72.08;98812.84;5059397;28;20006;-75
2021/10/23 02:03:55;;;;;;;;;;;;;;;9.27;71.87;98826.91;5059464;28;20395;-76
2021/10/23 02:06:21;;;;;;;;;;;;;;;9.34;71.73;98822.75;5059274;28;19920;-75
2021/10/23 02:08:47;;;;;;;;;;;;;;;9.33;71.82;98831.75;5075529;28;20360;-74
2021/10/23 02:11:13;;;;;;;;;;;;;;;9.34;71.89;98836.09;5059598;28;20341;-75
2021/10/23 02:13:39;;;;;;;;;;;;;;;9.38;71.56;98844.69;5075821;28;19923;-74
2021/10/23 02:16:05;;;;;;;;;;;;;;;9.42;71.53;98846.13;5059231;28;19927;-76
2021/10/23 02:18:30;;;;;;;;;;;;;;;9.33;71.78;98853.09;5059374;28;20371;-76
2021/10/23 02:20:56;;;;;;;;;;;;;;;9.39;71.34;98852.56;5059099;28;19927;-75
2021/10/23 02:23:22;;;;;;;;;;;;;;;9.36;71.42;98850.13;5092911;28;19927;-76
2021/10/23 02:25:48;;;;;;;;;;;;;;;9.30;71.67;98857.81;5075684;28;20029;-75
2021/10/23 02:28:16;;;;;;;;;;;;;;;9.40;71.72;98864.06;5058707;28;19931;-76
2021/10/23 02:30:41;;;;;;;;;;;;;;;9.54;71.33;98860.25;5075684;28;19927;-75
2021/10/23 02:33:07;;;;;;;;;;;;;;;9.53;71.26;98870.09;5093785;28;19927;-76
2021/10/23 02:35:33;;;;;;;;;;;;;;;9.51;70.97;98865.84;5075511;28;19919;-76
2021/10/23 02:37:59;;;;;;;;;;;;;;;9.54;71.19;98871.78;5075695;28;19926;-76
2021/10/23 02:40:31;;;;;;;;;;;;;;;9.58;70.85;98864.38;5092329;28;20379;-76
2021/10/23 02:42:57;;;;;;;;;;;;;;;9.62;71.00;98857.78;5058665;28;19927;-74
2021/10/23 02:45:23;;;;;;;;;;;;;;;9.71;70.77;98867.72;5058695;28;19920;-76
2021/10/23 02:47:48;;;;;;;;;;;;;;;9.80;70.55;98869.59;5075865;28;20503;-76
2021/10/23 02:50:14;;;;;;;;;;;;;;;9.87;70.42;98877.94;5058303;28;19982;-76
2021/10/23 02:52:40;;;;;;;;;;;;;;;9.91;70.34;98874.03;5075007;28;19920;-75
2021/10/23 02:55:07;;;;;;;;;;;;;;;9.95;70.13;98872.78;5058911;28;19920;-75
2021/10/23 02:57:32;;;;;;;;;;;;;;;9.96;70.16;98877.97;5058479;28;20413;-76
2021/10/23 02:59:58;;;;;;;;;;;;;;;9.90;70.19;98881.19;5075236;28;20333;-75
2021/10/23 03:02:24;;;;;;;;;;;;;;;9.89;70.36;98879.50;5075576;28;19920;-76
2021/10/23 03:04:50;;;;;;;;;;;;;;;9.98;70.15;98881.38;5058280;28;19931;-76
2021/10/23 03:07:16;;;;;;;;;;;;;;;10.04;69.92;98887.16;5075546;28;20018;-76
2021/10/23 03:09:41;;;;;;;;;;;;;;;10.01;70.23;98884.78;5058977;28;20294;-75
2021/10/23 03:12:07;;;;;;;;;;;;;;;9.89;70.17;98863.50;5058431;28;19920;-77
2021/10/23 03:14:33;;;;;;;;;;;;;;;10.06;69.93;98887.91;5058596;28;19981;-76
2021/10/23 03:16:59;;;;;;;;;;;;;;;10.00;69.76;98878.56;5075298;28;19919;-76
2021/10/23 03:19:24;;;;;;;;;;;;;;;9.92;70.01;98876.56;5057955;28;19924;-76
2021/10/23 03:21:50;;;;;;;;;;;;;;;9.85;70.35;98885.22;5092240;28;20026;-77
2021/10/23 03:24:16;;;;;;;;;;;;;;;9.79;70.56;98881.25;5041629;28;19920;-77
2021/10/23 03:26:42;;;;;;;;;;;;;;;9.70;71.12;98898.91;5058321;28;19924;-75
2021/10/23 03:29:09;;;;;;;;;;;;;;;9.66;71.21;98907.25;5058206;28;19946;-76
2021/10/23 03:31:35;;;;;;;;;;;;;;;9.61;71.72;98899.66;5057910;28;19924;-76
2021/10/23 03:34:01;;;;;;;;;;;;;;;9.54;71.99;98908.28;5057549;28;19926;-76
2021/10/23 03:36:27;;;;;;;;;;;;;;;9.48;72.03;98913.16;5058641;28;19926;-76
2021/10/23 03:38:53;;;;;;;;;;;;;;;9.55;71.98;98920.66;5058025;28;20360;-76
2021/10/23 03:41:19;;;;;;;;;;;;;;;9.51;72.18;98930.72;5061960;28;19920;-77
2021/10/23 03:43:45;;;;;;;;;;;;;;;9.53;71.87;98933.28;5095790;28;19988;-77
2021/10/23 03:46:11;;;;;;;;;;;;;;;9.54;72.13;98934.97;5045203;28;20366;-77
2021/10/23 03:48:37;;;;;;;;;;;;;;;9.66;71.70;98948.13;5061703;28;20076;-77
2021/10/23 03:51:03;;;;;;;;;;;;;;;9.62;71.55;98948.53;5061532;28;20284;-76
2021/10/23 03:53:29;;;;;;;;;;;;;;;9.66;71.64;98955.28;5078228;28;20012;-75
2021/10/23 03:55:54;;;;;;;;;;;;;;;9.68;71.52;98967.56;5078423;28;19923;-76
2021/10/23 03:58:20;;;;;;;;;;;;;;;9.68;71.69;98972.03;5061746;28;19920;-78
2021/10/23 04:00:46;;;;;;;;;;;;;;;9.72;71.45;98976.16;5078122;28;19920;-77
2021/10/23 04:03:12;;;;;;;;;;;;;;;9.82;71.33;98976.25;5061439;28;20298;-75
2021/10/23 04:05:37;;;;;;;;;;;;;;;9.88;71.09;98979.25;5078196;28;19967;-75
2021/10/23 04:08:03;;;;;;;;;;;;;;;9.92;71.20;98988.69;5061601;28;19939;-75
2021/10/23 04:10:30;;;;;;;;;;;;;;;9.98;71.19;98982.84;5078260;28;19920;-74
2021/10/23 04:12:55;;;;;;;;;;;;;;;10.10;70.87;98991.66;5077957;28;20459;-79
2021/10/23 04:15:21;;;;;;;;;;;;;;;10.91;76.43;98990.13;5044437;28;20375;-77
2021/10/23 04:17:47;;;;;;;;;;;;;;;11.69;72.78;98990.34;5093970;28;19943;-75
2021/10/23 04:20:13;;;;;;;;;;;;;;;12.24;71.29;98981.81;5077435;28;20287;-76
2021/10/23 04:22:39;;;;;;;;;;;;;;;12.73;67.02;98987.94;5060594;28;20015;-76
2021/10/23 04:25:06;;;;;;;;;;;;;;;12.46;64.41;98988.72;5060740;28;20038;-76
2021/10/23 04:27:31;;;;;;;;;;;;;;;12.09;64.23;98992.09;5094248;28;19970;-76
2021/10/23 04:29:57;;;;;;;;;;;;;;;11.85;64.88;99001.41;5077645;28;19971;-77
2021/10/23 04:32:23;;;;;;;;;;;;;;;11.59;65.59;98995.69;5076671;28;20340;-75
2021/10/23 04:34:49;;;;;;;;;;;;;;;11.27;66.67;98992.34;5057716;28;19927;-75
2021/10/23 04:37:15;;;;;;;;;;;;;;;11.13;67.43;98996.22;5074861;28;19924;-76
2021/10/23 04:39:40;;;;;;;;;;;;;;;10.89;68.30;98993.88;5040485;28;19927;-75
2021/10/23 04:42:06;;;;;;;;;;;;;;;10.84;68.62;98990.78;5040395;28;19970;-77
2021/10/23 04:44:32;;;;;;;;;;;;;;;10.91;68.89;99002.63;5056854;28;19928;-76
2021/10/23 04:46:58;;;;;;;;;;;;;;;11.03;68.37;98993.53;5040197;28;19924;-74
2021/10/23 04:49:24;;;;;;;;;;;;;;;11.01;68.25;99005.34;5040457;28;19920;-74
2021/10/23 04:51:49;;;;;;;;;;;;;;;11.01;68.47;99003.50;5039390;28;20307;-79
2021/10/23 04:54:15;;;;;;;;;;;;;;;11.02;68.30;99005.22;5040219;28;19974;-78
2021/10/23 04:56:41;;;;;;;;;;;;;;;11.07;68.36;99002.13;5056784;28;19926;-73
2021/10/23 04:59:07;;;;;;;;;;;;;;;11.09;68.37;99008.19;5056989;28;20015;-77
2021/10/23 05:01:33;;;;;;;;;;;;;;;11.25;68.17;98997.84;5040176;28;20015;-76
2021/10/23 05:03:59;;;;;;;;;;;;;;;11.33;67.97;99008.72;5073511;28;19920;-77
2021/10/23 05:06:25;;;;;;;;;;;;;;;11.35;67.46;99006.75;5040498;28;19947;-76
2021/10/23 05:08:51;;;;;;;;;;;;;;;11.49;67.50;99012.72;5073290;28;19920;-76
2021/10/23 05:11:16;;;;;;;;;;;;;;;11.47;67.15;99026.25;5056584;28;19920;-77
2021/10/23 05:13:42;;;;;;;;;;;;;;;11.42;67.23;99023.09;5035306;28;20444;-76
2021/10/23 05:16:08;;;;;;;;;;;;;;;11.32;67.36;99020.41;5009394;28;20348;-76
2021/10/23 05:18:34;;;;;;;;;;;;;;;11.26;67.81;99023.63;5038209;28;19920;-75
2021/10/23 05:21:00;;;;;;;;;;;;;;;11.14;68.22;99022.88;5004547;28;19929;-75
2021/10/23 05:23:25;;;;;;;;;;;;;;;11.08;68.58;99018.03;5018526;28;19936;-76
2021/10/23 05:25:51;;;;;;;;;;;;;;;11.01;68.69;99026.75;5001942;28;20051;-76
2021/10/23 05:28:18;;;;;;;;;;;;;;;10.83;69.30;99030.03;5035055;28;19931;-77
2021/10/23 05:30:46;;;;;;;;;;;;;;;10.80;69.70;99032.13;5018446;28;19982;-76
2021/10/23 05:33:11;;;;;;;;;;;;;;;10.76;70.01;99036.91;5034192;28;19927;-76
2021/10/23 05:35:40;;;;;;;;;;;;;;;10.84;69.74;99033.56;5002213;28;19920;-77
2021/10/23 05:38:06;;;;;;;;;;;;;;;10.85;69.59;99033.41;5002165;28;19921;-77
2021/10/23 05:40:33;;;;;;;;;;;;;;;10.96;69.44;99035.16;5034850;28;19924;-77
2021/10/23 05:42:59;;;;;;;;;;;;;;;10.89;69.62;99032.16;5001896;28;20025;-76
2021/10/23 05:45:25;;;;;;;;;;;;;;;10.71;70.08;99039.09;5031040;28;19927;-77
2021/10/23 05:47:51;;;;;;;;;;;;;;;10.78;70.16;99045.59;5039116;28;19961;-76
2021/10/23 05:50:17;;;;;;;;;;;;;;;10.81;69.79;99039.16;5056170;28;19927;-76
2021/10/23 05:52:43;;;;;;;;;;;;;;;10.80;69.90;99041.00;5056658;28;19920;-75
2021/10/23 05:55:09;;;;;;;;;;;;;;;10.91;69.98;99040.91;5040042;28;20023;-76
2021/10/23 05:57:35;;;;;;;;;;;;;;;11.08;69.60;99046.63;5023835;28;20003;-76
2021/10/23 06:00:06;;;;;;;;;;;;;;;11.21;69.33;99054.41;5040339;28;20019;-76
2021/10/23 06:02:40;;;;;;;;;;;;;;;11.10;69.26;99050.88;5042570;28;19920;-76
2021/10/23 06:05:07;;;;;;;;;;;;;;;11.14;69.30;99054.13;5039307;28;19920;-76
2021/10/23 06:07:34;;;;;;;;;;;;;;;11.29;69.36;99055.47;5055648;28;19964;-78
2021/10/23 06:10:02;;;;;;;;;;;;;;;11.35;68.67;99046.88;5072163;28;19920;-77
2021/10/23 06:12:28;;;;;;;;;;;;;;;11.47;68.83;99057.47;5055719;28;19920;-76
2021/10/23 06:14:54;;;;;;;;;;;;;;;11.59;68.32;99053.75;5055962;28;19924;-77
2021/10/23 06:17:20;;;;;;;;;;;;;;;11.56;68.43;99054.00;5072150;28;20367;-75
2021/10/23 06:19:46;;;;;;;;;;;;;;;11.56;68.14;99064.72;5038195;28;20442;-76
2021/10/23 06:22:12;;;;;;;;;;;;;;;11.57;68.12;99069.09;5038878;28;20303;-77
2021/10/23 06:24:38;;;;;;;;;;;;;;;11.67;68.02;99068.13;5038819;28;19945;-76
2021/10/23 06:27:04;;;;;;;;;;;;;;;11.61;67.99;99074.03;5055236;28;19928;-75
2021/10/23 06:29:30;;;;;;;;;;;;;;;11.61;67.88;99075.84;5055126;28;20325;-76
2021/10/23 06:31:55;;;;;;;;;;;;;;;11.67;67.86;99072.66;5055266;28;20298;-76
2021/10/23 06:34:21;;;;;;;;;;;;;;;11.62;68.09;99072.19;5038044;28;19920;-76
2021/10/23 06:36:47;;;;;;;;;;;;;;;11.57;68.07;99082.47;5038801;28;19920;-76
2021/10/23 06:39:13;;;;;;;;;;;;;;;11.55;68.16;99087.97;5038683;28;19920;-76
2021/10/23 06:41:39;;;;;;;;;;;;;;;11.57;68.36;99086.00;5038477;28;19924;-75
2021/10/23 06:44:08;;;;;;;;;;;;;;;11.70;68.16;99082.22;5056279;28;19943;-76
2021/10/23 06:46:37;;;;;;;;;;;;;;;11.72;68.05;99080.25;5072204;28;20371;-76
2021/10/23 06:49:04;;;;;;;;;;;;;;;11.70;67.68;99088.44;5055099;28;19969;-76
2021/10/23 06:51:29;;;;;;;;;;;;;;;11.79;67.68;99084.94;5038539;28;19920;-76
2021/10/23 06:53:56;;;;;;;;;;;;;;;11.84;67.73;99090.75;5038545;28;19924;-77
2021/10/23 06:56:22;;;;;;;;;;;;;;;11.86;67.51;99086.13;5038229;28;20371;-76
2021/10/23 06:58:48;;;;;;;;;;;;;;;11.91;67.40;99086.53;5071657;28;20374;-76
2021/10/23 07:01:13;;;;;;;;;;;;;;;11.93;67.35;99090.94;5037722;28;19920;-77
2021/10/23 07:03:39;;;;;;;;;;;;;;;11.90;67.93;99087.53;5037909;28;19924;-76
2021/10/23 07:06:05;;;;;;;;;;;;;;;12.10;67.25;99098.28;5021658;28;19924;-75
2021/10/23 07:08:31;;;;;;;;;;;;;;;12.13;67.10;99098.00;5054785;28;19920;-76
2021/10/23 07:10:56;;;;;;;;;;;;;;;12.12;67.32;99091.81;5055275;28;19932;-76
2021/10/23 07:13:22;;;;;;;;;;;;;;;12.22;66.94;99089.13;5021586;28;19963;-77
2021/10/23 07:15:48;;;;;;;;;;;;;;;12.26;66.77;99097.72;5058242;28;20032;-75
2021/10/23 07:18:14;;;;;;;;;;;;;;;12.37;66.79;99098.47;5076909;28;19982;-76
2021/10/23 07:20:40;;;;;;;;;;;;;;;12.51;66.38;99099.88;5058739;28;20371;-77
2021/10/23 07:23:06;;;;;;;;;;;;;;;12.57;65.92;99111.88;5058748;28;19920;-76
2021/10/23 07:25:32;;;;;;;;;;;;;;;12.59;65.49;99088.44;5042071;28;19920;-76
2021/10/23 07:27:58;;;;;;;;;;;;;;;12.64;65.71;99100.44;5025815;28;19928;-77
2021/10/23 07:30:23;;;;;;;;;;;;;;;12.69;65.52;99102.69;5042065;28;19920;-75
2021/10/23 07:32:49;;;;;;;;;;;;;;;12.69;65.14;99085.78;5058488;28;20301;-75
2021/10/23 07:35:15;;;;;;;;;;;;;;;12.69;64.92;99100.00;5024880;28;20311;-76
2021/10/23 07:37:41;;;;;;;;;;;;;;;12.68;64.97;99102.84;5074990;28;20044;-77
2021/10/23 07:40:07;;;;;;;;;;;;;;;12.61;65.01;99113.28;5041166;28;20054;-75
2021/10/23 07:42:34;;;;;;;;;;;;;;;12.56;65.03;99104.81;5075233;28;19927;-75
2021/10/23 07:45:00;;;;;;;;;;;;;;;12.45;65.40;99113.84;5075043;28;20050;-74
2021/10/23 07:47:26;;;;;;;;;;;;;;;12.46;65.67;99104.81;5058161;28;19965;-75
2021/10/23 07:49:52;;;;;;;;;;;;;;;12.46;65.97;99109.34;5057817;28;19921;-75
2021/10/23 07:52:18;;;;;;;;;;;;;;;12.59;65.79;99109.88;5040810;28;19920;-75
2021/10/23 07:54:43;;;;;;;;;;;;;;;12.67;65.51;99109.19;5041275;28;20345;-75
2021/10/23 07:57:11;;;;;;;;;;;;;;;12.91;65.63;99117.66;5057985;28;19966;-77
2021/10/23 07:59:38;;;;;;;;;;;;;;;13.15;64.40;99119.00;5041941;28;19927;-76
2021/10/23 08:02:07;;;;;;;;;;;;;;;13.21;64.05;99115.75;5041587;28;20387;-76
2021/10/23 08:04:32;;;;;;;;;;;;;;;13.33;63.84;99110.09;5041266;28;19920;-77
2021/10/23 08:06:59;;;;;;;;;;;;;;;13.47;62.83;99116.00;5041103;28;19966;-75
2021/10/23 08:09:26;;;;;;;;;;;;;;;13.62;62.69;99114.53;5074623;28;19967;-75
2021/10/23 08:11:52;;;;;;;;;;;;;;;13.72;62.34;99120.69;5041489;28;20272;-76
2021/10/23 08:14:18;;;;;;;;;;;;;;;13.82;61.97;99116.13;5041267;28;19924;-77
2021/10/23 08:16:44;;;;;;;;;;;;;;;13.68;61.54;99119.28;5041155;28;19959;-77
2021/10/23 08:19:09;;;;;;;;;;;;;;;13.51;61.80;99125.47;5070739;28;19962;-76
2021/10/23 08:21:36;;;;;;;;;;;;;;;13.55;61.96;99127.69;5069606;28;20026;-77
2021/10/23 08:24:02;;;;;;;;;;;;;;;13.62;61.98;99130.66;5058375;28;19926;-77
2021/10/23 08:26:28;;;;;;;;;;;;;;;13.67;62.18;99131.03;5068166;28;19923;-76
2021/10/23 08:28:54;;;;;;;;;;;;;;;13.56;62.04;99121.31;5064457;28;20389;-77
2021/10/23 08:31:20;;;;;;;;;;;;;;;13.43;62.63;99120.81;5114881;28;20524;-76
2021/10/23 08:33:45;;;;;;;;;;;;;;;13.34;62.42;99127.03;5064007;28;19920;-76
2021/10/23 08:36:11;;;;;;;;;;;;;;;13.48;62.48;99123.06;5097548;28;19942;-77
2021/10/23 08:38:37;;;;;;;;;;;;;;;13.48;62.24;99123.06;5068326;28;19975;-77
2021/10/23 08:41:03;;;;;;;;;;;;;;;13.72;62.20;99126.06;5059998;28;19927;-77
2021/10/23 08:43:29;;;;;;;;;;;;;;;14.14;60.52;99124.72;5089129;28;19927;-78
2021/10/23 08:45:56;;;;;;;;;;;;;;;14.41;59.73;99123.84;5063548;28;19920;-76
2021/10/23 08:48:22;;;;;;;;;;;;;;;14.56;59.80;99125.03;5085709;28;19923;-77
2021/10/23 08:50:48;;;;;;;;;;;;;;;14.85;59.39;99129.31;5059675;28;19927;-76
2021/10/23 08:53:14;;;;;;;;;;;;;;;14.99;58.26;99120.69;5059648;28;19955;-77
2021/10/23 08:55:39;;;;;;;;;;;;;;;14.94;58.29;99125.72;5059458;28;19961;-82
2021/10/23 08:58:08;;;;;;;;;;;;;;;14.90;58.57;99116.25;5059777;28;19924;-77
2021/10/23 09:00:34;;;;;;;;;;;;;;;15.02;58.18;99120.38;5094752;28;19920;-77
2021/10/23 09:03:00;;;;;;;;;;;;;;;14.92;57.64;99125.84;5059487;28;19974;-77
2021/10/23 09:05:25;;;;;;;;;;;;;;;14.77;58.21;99122.84;5076055;28;19924;-77
2021/10/23 09:07:51;;;;;;;;;;;;;;;14.78;58.18;99121.88;5076168;28;19920;-76
2021/10/23 09:10:28;;;;;;;;;;;;;;;14.96;58.21;99121.84;5075792;28;20362;-76
2021/10/23 09:13:00;;;;;;;;;;;;;;;15.22;56.77;99127.25;5042860;28;19920;-76
2021/10/23 09:15:27;;;;;;;;;;;;;;;15.08;57.18;99125.13;5059388;28;20394;-76
2021/10/23 09:17:53;;;;;;;;;;;;;;;15.13;57.65;99127.38;5059048;28;19926;-78
2021/10/23 09:20:20;;;;;;;;;;;;;;;15.22;57.23;99121.88;5093347;28;19920;-77
2021/10/23 09:22:49;;;;;;;;;;;;;;;15.34;56.88;99124.28;5059479;28;20417;-76
2021/10/23 09:25:17;;;;;;;;;;;;;;;15.57;56.04;99119.22;5075379;28;19969;-77
2021/10/23 09:28:04;;;;;;;;;;;;;;;15.60;56.13;99110.81;5054843;28;19982;-77
2021/10/23 09:30:40;;;;;;;;;;;;;;;15.53;55.78;99116.00;5071739;28;20046;-78
2021/10/23 09:33:08;;;;;;;;;;;;;;;15.49;56.38;99120.00;5037856;28;20027;-75
2021/10/23 09:35:43;;;;;;;;;;;;;;;15.53;55.93;99113.28;5071195;28;19920;-80
2021/10/23 09:38:10;;;;;;;;;;;;;;;15.21;56.60;99109.41;5054305;28;19920;-76
2021/10/23 09:40:38;;;;;;;;;;;;;;;15.40;58.51;99108.34;5053343;28;19932;-79
2021/10/23 09:43:07;;;;;;;;;;;;;;;16.26;59.92;99104.72;5038253;28;20019;-76
2021/10/23 09:45:34;;;;;;;;;;;;;;;17.16;59.50;99096.69;5054747;28;19952;-76
2021/10/23 09:48:10;;;;;;;;;;;;;;;17.65;56.83;99096.59;5038316;28;19958;-78
2021/10/23 09:50:36;;;;;;;;;;;;;;;17.63;54.89;99099.44;5071197;28;19924;-76
2021/10/23 09:53:05;;;;;;;;;;;;;;;17.81;55.16;99096.53;5071291;28;20011;-77
2021/10/23 09:55:34;;;;;;;;;;;;;;;18.19;54.32;99094.84;5054340;28;20393;-76
2021/10/23 09:58:16;;;;;;;;;;;;;;;18.34;50.79;99102.19;5037606;28;19927;-76
2021/10/23 10:00:42;;;;;;;;;;;;;;;18.71;50.62;99098.75;5054714;28;20027;-77
2021/10/23 10:03:08;;;;;;;;;;;;;;;18.89;49.56;99093.03;5054563;28;19959;-77
2021/10/23 10:05:34;;;;;;;;;;;;;;;19.23;49.39;99089.00;5051272;28;19951;-78
2021/10/23 10:08:04;;;;;;;;;;;;;;;19.50;48.85;99088.38;5059109;28;19926;-77
2021/10/23 10:10:32;;;;;;;;;;;;;;;19.97;47.62;99089.03;5059179;28;19927;-76
2021/10/23 10:12:57;;;;;;;;;;;;;;;19.94;47.31;99090.28;5063175;28;19919;-76
2021/10/23 10:15:23;;;;;;;;;;;;;;;20.00;47.48;99089.50;5113917;28;20290;-77
2021/10/23 10:17:49;;;;;;;;;;;;;;;19.85;46.41;99078.66;5079091;28;20022;-77
2021/10/23 10:20:15;;;;;;;;;;;;;;;20.04;46.58;99077.22;5112739;28;20094;-77
2021/10/23 10:22:51;;;;;;;;;;;;;;;20.36;45.60;99077.81;5080696;28;19920;-76
2021/10/23 10:25:18;;;;;;;;;;;;;;;20.88;45.29;99073.97;5075140;28;19919;-75
2021/10/23 10:27:44;;;;;;;;;;;;;;;20.86;44.04;99089.63;5075211;28;19963;-77
2021/10/23 10:30:37;;;;;;;;;;;;;;;20.56;44.30;99087.03;5054934;28;19981;-75
2021/10/23 10:33:21;;;;;;;;;;;;;;;20.15;45.98;99081.31;5051578;28;19947;-76
2021/10/23 10:36:12;;;;;;;;;;;;;;;20.05;45.43;99078.94;5073539;28;19927;-77
2021/10/23 10:44:19;;;;;;;;;;;;;;;19.73;46.24;99061.19;5073069;28;19966;-76
2021/10/23 10:46:54;;;;;;;;;;;;;;;19.52;46.15;99074.63;5060623;28;20009;-77
2021/10/23 10:49:40;;;;;;;;;;;;;;;19.53;46.05;99068.19;5073953;28;20394;-76
2021/10/23 10:52:32;;;;;;;;;;;;;;;19.46;46.16;99064.53;5059310;28;19932;-76
2021/10/23 10:55:17;;;;;;;;;;;;;;;19.38;46.07;99062.78;5051469;28;19921;-76
2021/10/23 10:57:56;;;;;;;;;;;;;;;19.48;46.58;99059.75;5082049;28;19927;-75
2021/10/23 11:00:22;;;;;;;;;;;;;;;19.49;45.17;99064.19;5097543;28;19971;-75
2021/10/23 11:02:48;;;;;;;;;;;;;;;19.35;45.93;99052.28;5099376;28;20112;-77
2021/10/23 11:05:20;;;;;;;;;;;;;;;18.76;45.76;99060.31;5086044;28;19929;-77
2021/10/23 11:08:03;;;;;;;;;;;;;;;18.25;46.99;99065.41;5080342;28;19920;-76
2021/10/23 11:10:47;;;;;;;;;;;;;;;17.48;48.51;99063.34;5112648;28;20274;-78
2021/10/23 11:13:24;;;;;;;;;;;;;;;17.02;50.06;99073.06;5068486;28;19939;-76
2021/10/23 11:15:50;;;;;;;;;;;;;;;16.80;50.51;99063.81;5096123;28;19919;-76
2021/10/23 11:18:19;;;;;;;;;;;;;;;16.57;51.23;99059.06;5077683;28;19923;-76
2021/10/23 11:20:45;;;;;;;;;;;;;;;16.38;51.32;99053.97;5077462;28;20019;-74
2021/10/23 11:23:21;;;;;;;;;;;;;;;16.06;52.04;99052.94;5078167;28;19942;-75
2021/10/23 11:25:47;;;;;;;;;;;;;;;15.90;51.96;99050.16;5061408;28;20011;-77
2021/10/23 11:28:13;;;;;;;;;;;;;;;15.83;52.05;99054.53;5078359;28;19923;-76
2021/10/23 11:30:42;;;;;;;;;;;;;;;15.77;52.44;99056.88;5078238;28;19927;-77
2021/10/23 11:33:10;;;;;;;;;;;;;;;15.52;52.88;99047.81;5077808;28;19963;-76
2021/10/23 11:35:41;;;;;;;;;;;;;;;15.32;53.58;99057.16;5095451;28;19919;-74
2021/10/23 11:38:08;;;;;;;;;;;;;;;15.29;53.72;99054.75;5077628;28;19920;-76
2021/10/23 11:40:35;;;;;;;;;;;;;;;15.28;53.81;99056.63;5094591;28;19920;-75
2021/10/23 11:43:00;;;;;;;;;;;;;;;15.24;53.77;99047.16;5077935;28;20344;-76
2021/10/23 11:45:27;;;;;;;;;;;;;;;15.16;53.90;99051.69;5077979;28;19923;-76
2021/10/23 11:47:53;;;;;;;;;;;;;;;15.07;54.32;99058.84;5094758;28;19927;-76
2021/10/23 11:50:23;;;;;;;;;;;;;;;15.00;54.77;99072.06;5069531;28;19989;-75
2021/10/23 11:53:01;;;;;;;;;;;;;;;15.02;54.96;99055.78;5097571;28;19920;-77
2021/10/23 11:55:47;;;;;;;;;;;;;;;14.91;55.36;99061.44;5074397;28;19924;-76
2021/10/23 11:58:16;;;;;;;;;;;;;;;14.94;55.06;99047.66;5062700;28;20375;-76
2021/10/23 12:00:49;;;;;;;;;;;;;;;14.96;55.51;99056.41;5038979;28;19920;-75
2021/10/23 12:03:29;;;;;;;;;;;;;;;14.95;55.50;99049.34;5058263;28;20353;-77
2021/10/23 12:05:55;;;;;;;;;;;;;;;14.88;55.56;99049.13;5058130;28;19920;-75
2021/10/23 12:08:28;;;;;;;;;;;;;;;14.86;55.65;99042.22;5043896;28;20369;-76
2021/10/23 12:11:06;;;;;;;;;;;;;;;14.79;55.93;99045.53;5058761;28;19920;-76
2021/10/23 12:13:51;;;;;;;;;;;;;;;14.78;56.22;99043.84;5074324;28;20006;-76
2021/10/23 12:16:33;;;;;;;;;;;;;;;14.77;56.05;99046.69;5086977;28;19920;-76
2021/10/23 12:19:08;;;;;;;;;;;;;;;14.80;56.25;99039.13;5068956;28;20426;-76
2021/10/23 12:21:35;;;;;;;;;;;;;;;14.77;55.83;99034.06;5093419;28;19945;-75
2021/10/23 12:24:10;;;;;;;;;;;;;;;14.80;55.97;99036.44;5095992;28;20414;-75
2021/10/23 12:26:36;;;;;;;;;;;;;;;14.76;56.07;99040.47;5076469;28;19927;-76
2021/10/23 12:29:06;;;;;;;;;;;;;;;14.78;55.98;99037.59;5097984;28;20277;-76
2021/10/23 12:31:50;;;;;;;;;;;;;;;14.74;56.10;99036.22;5097460;28;19945;-76
2021/10/23 12:34:16;;;;;;;;;;;;;;;14.74;55.74;99037.09;5081007;28;19919;-82
2021/10/23 12:36:49;;;;;;;;;;;;;;;14.74;55.40;99042.47;5080853;28;19926;-75
2021/10/23 12:39:16;;;;;;;;;;;;;;;14.81;54.95;99031.91;5098156;28;20090;-80
2021/10/23 12:41:41;;;;;;;;;;;;;;;14.81;54.79;99034.59;5097850;28;19977;-77
2021/10/23 12:44:07;;;;;;;;;;;;;;;14.77;54.61;99035.91;5114680;28;19970;-79
2021/10/23 12:46:33;;;;;;;;;;;;;;;14.76;54.58;99029.69;5081278;28;20458;-77
2021/10/23 12:48:59;;;;;;;;;;;;;;;14.81;54.53;99042.66;5097644;28;19924;-79
2021/10/23 12:51:30;;;;;;;;;;;;;;;14.78;54.97;99038.47;5080775;28;19926;-78
2021/10/23 12:53:56;;;;;;;;;;;;;;;14.73;54.93;99038.06;5081339;28;20305;-79
2021/10/23 12:56:21;;;;;;;;;;;;;;;14.78;55.30;99037.59;5097187;28;20006;-77